Time;durP1;ratioP1;P1;durP2;ratioP2;P2;SDS_P1;SDS_P2;PMS_P1;PMS_P2;Temp;Humidity;BMP_temperature;BMP_pressure;BME280_temperature;BME280_humidity;BME280_pressure;Samples;Min_cycle;Max_cycle;Signal;HPM_P1;HPM_P2
2021/08/08 00:01:37;;;;;;;7.13;4.32;;;18.20;96.40;;;;;;5079577;28;20040;-51
2021/08/08 00:04:03;;;;;;;6.93;4.00;;;18.10;96.50;;;;;;5086164;28;20032;-52
2021/08/08 00:06:29;;;;;;;4.25;3.85;;;18.10;96.70;;;;;;5082256;28;20039;-55
2021/08/08 00:08:55;;;;;;;5.60;3.90;;;18.20;96.40;;;;;;5089531;28;20043;-50
2021/08/08 00:11:21;;;;;;;6.32;4.15;;;18.20;96.50;;;;;;5089390;28;20076;-51
2021/08/08 00:13:46;;;;;;;5.28;4.18;;;18.20;96.50;;;;;;5086773;28;20036;-55
2021/08/08 00:16:12;;;;;;;6.82;4.10;;;18.30;96.30;;;;;;5087184;28;20036;-50
2021/08/08 00:18:38;;;;;;;5.95;3.80;;;18.30;96.30;;;;;;5085867;28;20039;-52
2021/08/08 00:21:03;;;;;;;6.32;4.15;;;18.40;96.30;;;;;;5084014;28;20036;-52
2021/08/08 00:23:29;;;;;;;7.55;4.18;;;18.40;96.10;;;;;;5086648;28;20033;-51
2021/08/08 00:25:54;;;;;;;4.97;4.00;;;18.40;95.90;;;;;;5088894;28;20046;-54
2021/08/08 00:28:20;;;;;;;6.45;3.80;;;18.60;95.80;;;;;;5087085;28;20044;-54
2021/08/08 00:30:46;;;;;;;10.90;5.40;;;18.70;95.60;;;;;;5089021;28;20029;-51
2021/08/08 00:33:11;;;;;;;4.55;3.80;;;18.70;95.30;;;;;;5082086;28;20123;-50
2021/08/08 00:35:41;;;;;;;3.72;3.40;;;18.60;95.30;;;;;;5085961;28;20108;-53
2021/08/08 00:38:10;;;;;;;5.55;3.58;;;18.60;95.50;;;;;;5079513;28;20028;-54
2021/08/08 00:40:35;;;;;;;8.27;4.10;;;18.50;95.60;;;;;;5085842;28;20056;-51
2021/08/08 00:43:01;;;;;;;5.72;3.80;;;18.50;95.60;;;;;;5068084;28;20055;-55
2021/08/08 00:45:26;;;;;;;6.70;3.95;;;18.30;95.90;;;;;;5084710;28;20030;-55
2021/08/08 00:47:52;;;;;;;4.65;3.70;;;18.30;95.80;;;;;;5084914;28;20024;-52
2021/08/08 00:50:17;;;;;;;5.03;3.80;;;18.40;95.80;;;;;;5087030;28;20571;-51
2021/08/08 00:52:43;;;;;;;3.92;3.53;;;18.40;95.80;;;;;;5083590;28;20055;-52
2021/08/08 00:55:11;;;;;;;8.15;4.82;;;18.50;95.70;;;;;;5085499;28;20100;-52
2021/08/08 00:57:36;;;;;;;6.30;4.10;;;18.50;95.70;;;;;;5081820;28;20039;-56
2021/08/08 01:00:08;;;;;;;8.25;4.63;;;18.50;95.60;;;;;;5085036;28;20036;-53
2021/08/08 01:02:36;;;;;;;7.80;4.15;;;18.40;95.80;;;;;;5081784;28;20027;-56
2021/08/08 01:05:07;;;;;;;4.60;3.83;;;18.40;96.00;;;;;;5089114;28;20041;-53
2021/08/08 01:08:04;;;;;;;8.57;3.83;;;18.40;95.80;;;;;;5087182;28;20024;-54
2021/08/08 01:10:31;;;;;;;8.15;4.05;;;18.40;95.70;;;;;;5077507;28;20037;-54
2021/08/08 01:12:57;;;;;;;4.45;3.70;;;18.40;95.60;;;;;;5087849;28;20035;-53
2021/08/08 01:15:23;;;;;;;7.45;3.83;;;18.40;95.80;;;;;;5064893;28;20032;-49
2021/08/08 01:17:50;;;;;;;6.88;4.30;;;18.30;95.60;;;;;;5071747;28;20024;-50
2021/08/08 01:20:16;;;;;;;8.65;4.78;;;18.30;95.80;;;;;;5071961;28;20034;-52
2021/08/08 01:22:49;;;;;;;6.78;4.03;;;18.20;96.10;;;;;;5086362;28;20035;-51
2021/08/08 01:25:15;;;;;;;5.07;4.15;;;18.10;96.00;;;;;;5089369;28;20039;-51
2021/08/08 01:27:41;;;;;;;5.20;4.13;;;18.10;96.20;;;;;;5087104;28;20042;-51
2021/08/08 01:30:08;;;;;;;7.93;3.92;;;18.00;96.40;;;;;;5088945;28;20032;-51
2021/08/08 01:32:34;;;;;;;7.22;3.80;;;18.00;96.50;;;;;;5074907;28;20057;-49
2021/08/08 01:35:00;;;;;;;5.22;3.80;;;17.90;96.50;;;;;;5092745;28;20044;-55
2021/08/08 01:37:28;;;;;;;7.68;4.05;;;17.80;96.60;;;;;;5075390;28;20035;-50
2021/08/08 01:40:10;;;;;;;4.65;3.78;;;17.70;96.80;;;;;;5092212;28;20063;-56
2021/08/08 01:42:39;;;;;;;7.45;4.25;;;17.60;96.90;;;;;;5087231;28;20061;-52
2021/08/08 01:45:06;;;;;;;4.78;4.20;;;17.60;97.10;;;;;;5089617;28;20024;-52
2021/08/08 01:47:34;;;;;;;7.53;4.25;;;17.60;97.00;;;;;;5091694;28;20024;-58
2021/08/08 01:50:01;;;;;;;7.38;4.28;;;17.60;97.00;;;;;;5091883;28;20102;-58
2021/08/08 01:52:27;;;;;;;7.55;4.55;;;17.60;97.00;;;;;;5088086;28;20020;-55
2021/08/08 01:54:54;;;;;;;6.03;3.90;;;17.60;97.00;;;;;;5090901;28;20097;-57
2021/08/08 01:57:20;;;;;;;6.50;4.35;;;17.50;97.10;;;;;;5091242;28;20035;-58
2021/08/08 01:59:45;;;;;;;6.15;4.50;;;17.50;97.00;;;;;;5090211;28;20020;-58
2021/08/08 02:02:13;;;;;;;9.90;3.90;;;17.50;97.10;;;;;;5089349;28;20024;-57
2021/08/08 02:04:40;;;;;;;6.40;3.67;;;17.40;97.20;;;;;;5087920;28;20044;-57
2021/08/08 02:07:09;;;;;;;4.85;3.72;;;17.40;97.20;;;;;;5091406;28;20035;-54
2021/08/08 02:09:35;;;;;;;5.70;4.35;;;17.40;97.10;;;;;;5083954;28;20031;-57
2021/08/08 02:12:01;;;;;;;6.32;3.70;;;17.40;97.20;;;;;;5085565;28;20399;-58
2021/08/08 02:14:26;;;;;;;4.22;3.55;;;17.30;97.30;;;;;;5091065;28;20017;-58
2021/08/08 02:16:52;;;;;;;5.53;4.00;;;17.30;97.40;;;;;;5089822;28;20037;-58
2021/08/08 02:19:17;;;;;;;3.97;3.58;;;17.30;97.30;;;;;;5088116;28;20028;-57
2021/08/08 02:21:45;;;;;;;4.22;3.75;;;17.30;97.30;;;;;;5091231;28;20028;-56
2021/08/08 02:24:11;;;;;;;5.03;3.70;;;17.30;97.40;;;;;;5089078;28;20382;-58
2021/08/08 02:26:36;;;;;;;5.05;3.83;;;17.30;97.20;;;;;;5090887;28;20029;-57
2021/08/08 02:29:02;;;;;;;5.85;3.53;;;17.40;97.30;;;;;;5071445;28;20036;-56
2021/08/08 02:31:37;;;;;;;7.47;3.65;;;17.30;97.30;;;;;;5088299;28;20423;-56
2021/08/08 02:34:03;;;;;;;4.67;3.20;;;17.40;97.40;;;;;;5067135;28;20039;-56
2021/08/08 02:36:29;;;;;;;6.00;3.83;;;17.30;97.30;;;;;;5086307;28;20585;-57
2021/08/08 02:38:54;;;;;;;5.63;3.80;;;17.40;97.20;;;;;;5085406;28;20020;-55
2021/08/08 02:41:20;;;;;;;5.35;3.60;;;17.40;97.10;;;;;;5086264;28;20037;-57
2021/08/08 02:43:45;;;;;;;8.80;3.60;;;17.50;97.00;;;;;;5090295;28;20070;-58
2021/08/08 02:46:11;;;;;;;5.95;3.70;;;17.40;97.20;;;;;;5089913;28;20032;-56
2021/08/08 02:48:36;;;;;;;6.28;3.92;;;17.40;97.30;;;;;;5091000;28;20111;-57
2021/08/08 02:51:02;;;;;;;5.90;3.88;;;17.40;97.30;;;;;;5090551;28;20031;-58
2021/08/08 02:53:28;;;;;;;10.38;4.55;;;17.30;97.40;;;;;;5091034;28;20059;-59
2021/08/08 02:55:53;;;;;;;5.00;3.58;;;17.30;97.40;;;;;;5087082;28;20115;-57
2021/08/08 02:58:19;;;;;;;5.35;3.50;;;17.30;97.30;;;;;;5090512;28;20040;-60
2021/08/08 03:00:44;;;;;;;4.70;3.60;;;17.30;97.40;;;;;;5085782;28;20039;-58
2021/08/08 03:03:10;;;;;;;4.93;4.00;;;17.20;97.50;;;;;;5091078;28;20040;-59
2021/08/08 03:05:36;;;;;;;6.45;3.88;;;17.20;97.40;;;;;;5079986;28;20052;-57
2021/08/08 03:08:01;;;;;;;6.40;3.45;;;17.20;97.40;;;;;;5089898;28;20115;-56
2021/08/08 03:10:27;;;;;;;5.75;3.55;;;17.20;97.40;;;;;;5078536;28;20028;-57
2021/08/08 03:12:52;;;;;;;6.57;3.97;;;17.20;97.30;;;;;;5089302;28;20061;-58
2021/08/08 03:15:18;;;;;;;6.07;4.20;;;17.30;97.40;;;;;;5089847;28;20048;-59
2021/08/08 03:17:43;;;;;;;7.45;3.88;;;17.30;97.20;;;;;;5088325;28;20119;-55
2021/08/08 03:20:09;;;;;;;6.05;3.72;;;17.40;97.10;;;;;;5089206;28;20042;-57
2021/08/08 03:22:36;;;;;;;7.32;3.83;;;17.30;97.10;;;;;;5087943;28;20033;-57
2021/08/08 03:25:02;;;;;;;4.63;3.63;;;17.20;97.30;;;;;;5084933;28;20084;-58
2021/08/08 03:27:27;;;;;;;8.23;4.50;;;17.20;97.40;;;;;;5089293;28;20112;-58
2021/08/08 03:29:53;;;;;;;7.95;4.20;;;17.20;97.40;;;;;;5089898;28;20382;-58
2021/08/08 03:32:19;;;;;;;6.55;3.85;;;17.20;97.30;;;;;;5093873;28;20036;-59
2021/08/08 03:34:44;;;;;;;5.10;3.67;;;17.20;97.50;;;;;;5094324;28;20036;-59
2021/08/08 03:37:10;;;;;;;5.18;3.88;;;17.10;97.50;;;;;;5093021;28;20040;-58
2021/08/08 03:39:35;;;;;;;7.28;3.88;;;17.20;97.40;;;;;;5093166;28;20040;-57
2021/08/08 03:42:01;;;;;;;4.88;3.13;;;17.10;97.50;;;;;;5074927;28;20028;-57
2021/08/08 03:44:27;;;;;;;5.28;3.60;;;17.10;97.40;;;;;;5092876;28;20089;-57
2021/08/08 03:46:52;;;;;;;7.47;3.88;;;17.20;97.40;;;;;;5093013;28;20047;-56
2021/08/08 03:49:18;;;;;;;5.63;3.30;;;17.20;97.30;;;;;;5093600;28;20040;-55
2021/08/08 03:51:44;;;;;;;6.70;3.40;;;17.30;97.20;;;;;;5093062;28;20043;-57
2021/08/08 03:54:09;;;;;;;4.28;3.10;;;17.20;97.20;;;;;;5092578;28;20040;-58
2021/08/08 03:56:35;;;;;;;5.15;3.03;;;17.20;97.30;;;;;;5092204;28;20107;-58
2021/08/08 03:59:01;;;;;;;5.78;3.78;;;17.20;97.40;;;;;;5092754;28;20036;-59
2021/08/08 04:01:27;;;;;;;4.75;3.45;;;17.20;97.40;;;;;;5092678;28;20027;-57
2021/08/08 04:03:52;;;;;;;4.30;3.22;;;17.10;97.40;;;;;;5092783;28;20119;-58
2021/08/08 04:06:18;;;;;;;5.68;3.40;;;17.20;97.40;;;;;;5092896;28;20120;-58
2021/08/08 04:08:43;;;;;;;5.45;3.20;;;17.20;97.20;;;;;;5093004;28;20105;-57
2021/08/08 04:11:13;;;;;;;7.72;3.22;;;17.20;97.00;;;;;;5074648;28;20074;-57
2021/08/08 04:13:39;;;;;;;4.97;3.63;;;17.30;97.20;;;;;;5092593;28;20491;-58
2021/08/08 04:16:05;;;;;;;5.00;3.70;;;17.20;97.10;;;;;;5092474;28;20513;-55
2021/08/08 04:18:31;;;;;;;4.63;3.20;;;17.10;97.10;;;;;;5092308;28;20044;-57
2021/08/08 04:20:57;;;;;;;6.55;3.45;;;17.20;97.40;;;;;;5072502;28;20090;-55
2021/08/08 04:23:22;;;;;;;6.70;3.45;;;17.20;97.20;;;;;;5072211;28;20032;-58
2021/08/08 04:25:48;;;;;;;5.28;3.38;;;17.20;97.30;;;;;;5071577;28;20345;-58
2021/08/08 04:28:14;;;;;;;5.10;3.40;;;17.20;97.00;;;;;;5072110;28;20041;-57
2021/08/08 04:30:40;;;;;;;4.82;3.10;;;17.20;97.10;;;;;;5071919;28;20028;-59
2021/08/08 04:33:05;;;;;;;3.55;3.10;;;17.10;97.30;;;;;;5071784;28;20395;-58
2021/08/08 04:35:33;;;;;;;7.15;3.42;;;17.10;97.30;;;;;;5071695;28;20055;-56
2021/08/08 04:38:00;;;;;;;6.45;3.42;;;17.20;97.10;;;;;;5071714;28;20404;-58
2021/08/08 04:40:26;;;;;;;6.45;3.20;;;17.20;97.10;;;;;;5071676;28;20054;-54
2021/08/08 04:42:52;;;;;;;4.43;3.17;;;17.30;96.70;;;;;;5072194;28;20548;-57
2021/08/08 04:45:20;;;;;;;9.48;4.00;;;17.30;96.70;;;;;;5071936;28;20124;-57
2021/08/08 04:47:47;;;;;;;6.10;3.20;;;17.30;96.90;;;;;;5071794;28;20020;-58
2021/08/08 04:50:12;;;;;;;5.00;3.35;;;17.30;96.80;;;;;;5072023;28;20033;-58
2021/08/08 04:52:38;;;;;;;5.78;3.50;;;17.30;96.80;;;;;;5071729;28;20119;-56
2021/08/08 04:55:05;;;;;;;5.68;3.63;;;17.30;96.70;;;;;;5072223;28;20036;-57
2021/08/08 04:57:31;;;;;;;5.55;2.97;;;17.40;96.70;;;;;;5087324;28;20499;-57
2021/08/08 04:59:56;;;;;;;4.70;3.00;;;17.40;96.70;;;;;;5092238;28;20058;-57
2021/08/08 05:02:22;;;;;;;8.20;3.50;;;17.40;96.70;;;;;;5092284;28;20031;-55
2021/08/08 05:04:48;;;;;;;6.25;3.40;;;17.40;96.80;;;;;;5094934;28;20030;-58
2021/08/08 05:07:13;;;;;;;3.38;3.08;;;17.40;96.70;;;;;;5095856;28;20028;-58
2021/08/08 05:09:39;;;;;;;6.63;3.78;;;17.50;96.80;;;;;;5096253;28;20408;-59
2021/08/08 05:12:07;;;;;;;4.22;3.20;;;17.50;96.40;;;;;;5095473;28;20119;-59
2021/08/08 05:14:33;;;;;;;4.50;3.22;;;17.60;96.30;;;;;;5077830;28;20028;-59
2021/08/08 05:17:00;;;;;;;4.60;3.00;;;17.60;96.40;;;;;;5095153;28;20044;-57
2021/08/08 05:19:25;;;;;;;3.85;3.30;;;17.60;96.40;;;;;;5088121;28;20032;-57
2021/08/08 05:21:51;;;;;;;4.55;3.38;;;17.70;96.30;;;;;;5075364;28;20032;-57
2021/08/08 05:24:19;;;;;;;3.30;2.60;;;17.70;96.30;;;;;;5075081;28;20033;-57
2021/08/08 05:26:45;;;;;;;5.15;3.22;;;17.80;96.10;;;;;;5075258;28;20032;-55
2021/08/08 05:29:10;;;;;;;3.50;2.90;;;17.90;96.00;;;;;;5075541;28;20392;-57
2021/08/08 05:31:38;;;;;;;6.43;2.90;;;18.00;95.90;;;;;;5075422;28;20043;-57
2021/08/08 05:34:04;;;;;;;5.20;3.30;;;18.10;95.70;;;;;;5094155;28;20028;-57
2021/08/08 05:36:29;;;;;;;5.68;2.88;;;18.10;95.60;;;;;;5095308;28;20487;-58
2021/08/08 05:38:56;;;;;;;3.30;2.97;;;18.10;95.60;;;;;;5077411;28;20036;-57
2021/08/08 05:41:22;;;;;;;4.00;3.00;;;18.10;95.60;;;;;;5095881;28;20035;-58
2021/08/08 05:43:48;;;;;;;6.05;3.03;;;18.10;95.50;;;;;;5095581;28;20422;-57
2021/08/08 05:46:13;;;;;;;5.95;3.10;;;18.20;95.40;;;;;;5095188;28;20039;-57
2021/08/08 05:48:39;;;;;;;8.93;3.00;;;18.30;95.20;;;;;;5095976;28;20556;-59
2021/08/08 05:51:04;;;;;;;3.90;2.83;;;18.40;94.90;;;;;;5095366;28;20024;-58
2021/08/08 05:53:30;;;;;;;3.78;3.10;;;18.40;95.00;;;;;;5095813;28;20036;-57
2021/08/08 05:55:55;;;;;;;6.03;3.63;;;18.50;94.80;;;;;;5095108;28;20088;-58
2021/08/08 05:58:21;;;;;;;3.80;3.17;;;18.60;94.90;;;;;;5095174;28;20165;-58
2021/08/08 06:00:46;;;;;;;3.80;2.90;;;18.60;94.60;;;;;;5095983;28;20059;-58
2021/08/08 06:03:12;;;;;;;4.10;2.70;;;18.70;94.50;;;;;;5095721;28;20028;-57
2021/08/08 06:05:38;;;;;;;3.83;2.78;;;18.60;94.60;;;;;;5095258;28;20039;-57
2021/08/08 06:08:05;;;;;;;5.43;3.00;;;18.60;94.70;;;;;;5094519;28;20025;-59
2021/08/08 06:10:31;;;;;;;6.15;2.97;;;18.60;94.80;;;;;;5094832;28;20032;-56
2021/08/08 06:12:56;;;;;;;4.70;3.05;;;18.70;94.60;;;;;;5095450;28;20089;-59
2021/08/08 06:15:22;;;;;;;4.80;2.92;;;18.70;94.30;;;;;;5093725;28;20503;-57
2021/08/08 06:17:49;;;;;;;4.90;3.00;;;18.60;94.60;;;;;;5095136;28;20028;-58
2021/08/08 06:20:14;;;;;;;5.30;2.80;;;18.70;94.50;;;;;;5062579;28;20024;-58
2021/08/08 06:22:40;;;;;;;5.45;2.70;;;18.80;94.30;;;;;;5074440;28;20032;-58
2021/08/08 06:25:06;;;;;;;5.97;2.63;;;18.90;94.10;;;;;;5074908;28;20043;-57
2021/08/08 06:27:31;;;;;;;4.35;3.05;;;18.90;94.20;;;;;;5073688;28;20081;-58
2021/08/08 06:29:57;;;;;;;4.85;3.10;;;18.90;94.30;;;;;;5074239;28;20040;-55
2021/08/08 06:32:23;;;;;;;5.90;2.72;;;19.00;94.20;;;;;;5074606;28;20078;-57
2021/08/08 06:34:48;;;;;;;4.35;2.70;;;19.00;93.80;;;;;;5074548;28;20036;-58
2021/08/08 06:37:14;;;;;;;2.75;2.45;;;19.00;94.00;;;;;;5073637;28;20033;-59
2021/08/08 06:39:41;;;;;;;4.82;3.00;;;18.90;93.70;;;;;;5074240;28;20040;-59
2021/08/08 06:42:06;;;;;;;5.88;2.70;;;19.10;93.80;;;;;;5056119;28;20059;-56
2021/08/08 06:44:32;;;;;;;5.25;2.90;;;19.10;93.40;;;;;;5056388;28;20025;-55
2021/08/08 06:46:57;;;;;;;14.40;3.17;;;19.00;93.40;;;;;;5073261;28;20025;-58
2021/08/08 06:49:23;;;;;;;3.08;2.50;;;19.00;93.10;;;;;;5073660;28;20055;-59
2021/08/08 06:51:48;;;;;;;4.47;2.70;;;19.00;93.20;;;;;;5073261;28;20024;-58
2021/08/08 06:54:14;;;;;;;3.08;2.30;;;19.00;93.40;;;;;;5072687;28;20085;-59
2021/08/08 06:56:40;;;;;;;4.25;2.65;;;18.90;92.80;;;;;;5081862;28;20529;-59
2021/08/08 06:59:05;;;;;;;3.45;2.67;;;18.80;93.00;;;;;;5093730;28;20036;-60
2021/08/08 07:01:31;;;;;;;4.45;2.45;;;18.90;93.20;;;;;;5093587;28;20392;-58
2021/08/08 07:03:56;;;;;;;3.40;2.70;;;19.00;92.80;;;;;;5093711;28;20073;-58
2021/08/08 07:06:22;;;;;;;5.97;2.85;;;19.10;92.60;;;;;;5093376;28;20031;-61
2021/08/08 07:08:48;;;;;;;4.20;2.58;;;19.20;92.60;;;;;;5093574;28;20028;-59
2021/08/08 07:11:14;;;;;;;6.88;2.80;;;19.20;92.40;;;;;;5093746;28;20122;-58
2021/08/08 07:13:40;;;;;;;3.20;2.90;;;19.30;92.30;;;;;;5093660;28;20042;-58
2021/08/08 07:16:07;;;;;;;5.22;2.60;;;19.40;92.30;;;;;;5093644;28;20036;-57
2021/08/08 07:18:33;;;;;;;5.32;2.60;;;19.50;92.00;;;;;;5093405;28;20028;-56
2021/08/08 07:20:58;;;;;;;3.75;2.85;;;19.40;91.50;;;;;;5073485;28;20044;-55
2021/08/08 07:23:24;;;;;;;2.90;2.20;;;19.40;91.30;;;;;;5073441;28;20063;-50
2021/08/08 07:25:49;;;;;;;3.42;2.50;;;19.30;91.50;;;;;;5072944;28;20028;-56
2021/08/08 07:28:15;;;;;;;3.40;2.78;;;19.30;91.80;;;;;;5072242;28;20071;-54
2021/08/08 07:30:41;;;;;;;3.30;2.55;;;19.50;91.70;;;;;;5084394;28;20399;-56
2021/08/08 07:33:07;;;;;;;4.70;2.60;;;19.70;91.10;;;;;;5083711;28;20028;-55
2021/08/08 07:35:34;;;;;;;5.50;2.60;;;19.80;90.10;;;;;;5081864;28;20059;-54
2021/08/08 07:38:00;;;;;;;5.13;2.50;;;19.80;90.80;;;;;;5082204;28;20073;-54
2021/08/08 07:40:25;;;;;;;5.32;2.63;;;19.70;90.90;;;;;;5088896;28;20031;-50
2021/08/08 07:42:51;;;;;;;2.42;2.17;;;19.60;90.70;;;;;;5093001;28;20036;-56
2021/08/08 07:45:18;;;;;;;4.97;2.53;;;19.60;91.10;;;;;;5092957;28;20392;-54
2021/08/08 07:47:43;;;;;;;6.05;2.50;;;19.60;90.50;;;;;;5074918;28;20039;-55
2021/08/08 07:50:10;;;;;;;6.57;2.78;;;19.70;90.50;;;;;;5093112;28;20134;-52
2021/08/08 07:52:36;;;;;;;3.80;2.53;;;19.60;89.70;;;;;;5074838;28;20120;-52
2021/08/08 07:55:07;;;;;;;11.30;2.75;;;19.60;90.30;;;;;;5092730;28;20459;-56
2021/08/08 07:57:33;;;;;;;3.83;2.40;;;19.60;90.50;;;;;;5074496;28;20036;-55
2021/08/08 07:59:59;;;;;;;5.20;2.50;;;19.70;90.50;;;;;;5092406;28;20043;-54
2021/08/08 08:02:24;;;;;;;6.45;2.47;;;19.70;90.50;;;;;;5092671;28;20051;-53
2021/08/08 08:04:50;;;;;;;3.67;2.33;;;19.90;90.40;;;;;;5092865;28;20044;-52
2021/08/08 08:07:15;;;;;;;3.75;2.42;;;19.90;89.80;;;;;;5092298;28;20032;-54
2021/08/08 08:09:41;;;;;;;5.30;2.67;;;20.00;88.90;;;;;;5092297;28;20437;-52
2021/08/08 08:12:07;;;;;;;5.57;3.15;;;20.00;87.80;;;;;;5074112;28;20040;-51
2021/08/08 08:14:33;;;;;;;2.92;2.53;;;19.80;87.80;;;;;;5074558;28;20032;-50
2021/08/08 08:16:58;;;;;;;3.95;2.40;;;19.90;87.10;;;;;;5091929;28;20115;-56
2021/08/08 08:19:24;;;;;;;6.35;3.20;;;19.90;87.00;;;;;;5093294;28;20126;-53
2021/08/08 08:21:49;;;;;;;6.35;2.78;;;19.90;88.30;;;;;;5092336;28;20483;-56
2021/08/08 08:24:15;;;;;;;4.90;3.00;;;19.90;87.90;;;;;;5085859;28;20385;-55
2021/08/08 08:26:41;;;;;;;4.68;2.78;;;19.80;88.30;;;;;;5054500;28;20170;-53
2021/08/08 08:29:07;;;;;;;3.78;2.63;;;19.80;86.80;;;;;;5073072;28;20582;-55
2021/08/08 08:31:34;;;;;;;4.35;2.70;;;20.00;87.20;;;;;;5072491;28;20116;-52
2021/08/08 08:34:00;;;;;;;3.70;2.90;;;20.00;84.60;;;;;;5072450;28;20041;-50
2021/08/08 08:36:25;;;;;;;4.28;2.80;;;19.90;84.60;;;;;;5071877;28;20035;-57
2021/08/08 08:38:51;;;;;;;5.03;3.08;;;19.90;84.60;;;;;;5071945;28;20036;-54
2021/08/08 08:41:17;;;;;;;5.72;3.15;;;20.00;85.50;;;;;;5054389;28;20126;-53
2021/08/08 08:43:44;;;;;;;8.93;3.53;;;20.00;85.50;;;;;;5072097;28;20052;-53
2021/08/08 08:46:11;;;;;;;4.25;2.70;;;20.00;84.50;;;;;;5071481;28;20561;-54
2021/08/08 08:48:39;;;;;;;6.55;2.60;;;20.40;85.50;;;;;;5071640;28;20488;-55
2021/08/08 08:51:06;;;;;;;5.45;2.50;;;20.50;83.30;;;;;;5071493;28;20033;-55
2021/08/08 08:53:32;;;;;;;6.18;3.13;;;20.80;83.60;;;;;;5071878;28;20029;-52
2021/08/08 08:56:01;;;;;;;5.32;3.30;;;20.60;83.80;;;;;;5073681;28;20025;-54
2021/08/08 08:58:30;;;;;;;4.18;2.72;;;20.70;84.50;;;;;;5091774;28;20031;-55
2021/08/08 09:00:56;;;;;;;3.65;2.80;;;20.70;84.10;;;;;;5091525;28;20126;-52
2021/08/08 09:03:22;;;;;;;3.90;2.75;;;20.60;84.40;;;;;;5092483;28;20495;-54
2021/08/08 09:05:47;;;;;;;6.28;4.20;;;20.60;84.80;;;;;;5092143;28;20479;-51
2021/08/08 09:08:13;;;;;;;6.90;3.38;;;20.60;84.20;;;;;;5092755;28;20421;-51
2021/08/08 09:10:40;;;;;;;4.10;2.80;;;20.60;84.00;;;;;;5092094;28;20077;-52
2021/08/08 09:13:06;;;;;;;4.30;2.97;;;20.70;84.20;;;;;;5092172;28;20028;-54
2021/08/08 09:15:41;;;;;;;6.95;2.95;;;20.90;84.50;;;;;;5091710;28;20088;-54
2021/08/08 09:18:14;;;;;;;5.22;2.72;;;21.10;84.10;;;;;;5074014;28;20457;-53
2021/08/08 09:20:40;;;;;;;3.65;2.67;;;21.30;83.10;;;;;;5055997;28;20107;-55
2021/08/08 09:23:06;;;;;;;6.10;3.10;;;21.40;83.40;;;;;;5071641;28;20388;-50
2021/08/08 09:25:32;;;;;;;7.18;2.80;;;21.20;81.50;;;;;;5071123;28;20040;-55
2021/08/08 09:28:11;;;;;;;5.63;3.00;;;21.20;83.20;;;;;;5070978;28;20127;-54
2021/08/08 09:30:39;;;;;;;4.22;2.90;;;21.50;83.10;;;;;;5071754;28;20032;-54
2021/08/08 09:33:07;;;;;;;5.28;3.67;;;21.60;81.30;;;;;;5071868;28;20035;-56
2021/08/08 09:35:38;;;;;;;4.75;2.90;;;21.30;83.00;;;;;;5053859;28;20064;-51
2021/08/08 09:38:09;;;;;;;5.20;2.67;;;21.20;83.10;;;;;;5072514;28;20045;-56
2021/08/08 09:40:40;;;;;;;3.85;3.38;;;21.10;84.10;;;;;;5071533;28;20032;-49
2021/08/08 09:43:08;;;;;;;5.10;2.72;;;21.00;83.20;;;;;;5071701;28;20147;-54
2021/08/08 09:45:39;;;;;;;4.25;2.88;;;20.80;83.60;;;;;;5073799;28;20431;-56
2021/08/08 09:48:05;;;;;;;3.95;2.95;;;20.80;83.50;;;;;;5079165;28;20044;-53
2021/08/08 09:50:33;;;;;;;6.78;3.40;;;21.10;83.90;;;;;;5092196;28;20066;-51
2021/08/08 09:53:01;;;;;;;5.53;2.92;;;21.40;83.40;;;;;;5095660;28;20028;-53
2021/08/08 09:55:33;;;;;;;4.90;2.97;;;21.70;83.10;;;;;;5095046;28;20097;-51
2021/08/08 09:57:59;;;;;;;4.25;2.95;;;21.70;81.60;;;;;;5095004;28;20137;-52
2021/08/08 10:00:36;;;;;;;6.47;3.05;;;21.60;80.40;;;;;;5076840;28;20028;-50
2021/08/08 10:03:07;;;;;;;5.13;2.83;;;21.20;82.50;;;;;;5095373;28;20036;-51
2021/08/08 10:05:41;;;;;;;4.82;3.17;;;21.10;83.40;;;;;;5095259;28;20020;-50
2021/08/08 10:08:08;;;;;;;;;;;21.00;83.50;;;;;;5086539;28;20039;-55
2021/08/08 10:10:38;;;;;;;4.38;3.13;;;20.80;84.10;;;;;;5057333;28;20356;-50
2021/08/08 10:13:22;;;;;;;5.97;2.90;;;20.90;84.10;;;;;;5074752;28;20499;-50
2021/08/08 10:15:51;;;;;;;7.30;3.88;;;20.90;82.80;;;;;;5074821;28;20036;-51
2021/08/08 10:18:19;;;;;;;3.88;2.60;;;21.00;83.10;;;;;;5074769;28;20120;-53
2021/08/08 10:20:45;;;;;;;5.40;2.72;;;20.90;84.10;;;;;;5074367;28;20085;-57
2021/08/08 10:23:16;;;;;;;3.63;2.80;;;20.80;82.70;;;;;;5074404;28;20056;-52
2021/08/08 10:25:47;;;;;;;6.45;3.13;;;20.70;82.10;;;;;;5074160;28;20048;-53
2021/08/08 10:28:13;;;;;;;4.38;2.97;;;20.70;83.10;;;;;;5056532;28;20043;-54
2021/08/08 10:30:39;;;;;;;4.63;3.17;;;20.60;82.10;;;;;;5074456;28;20078;-55
2021/08/08 10:33:06;;;;;;;3.67;2.78;;;20.70;81.40;;;;;;5074533;28;20029;-57
2021/08/08 10:35:37;;;;;;;3.75;2.78;;;20.80;81.90;;;;;;5074990;28;20032;-53
2021/08/08 10:38:03;;;;;;;6.00;3.13;;;20.80;82.30;;;;;;5056130;28;20506;-55
2021/08/08 10:40:31;;;;;;;4.07;2.65;;;21.00;81.80;;;;;;5074128;28;20029;-54
2021/08/08 10:42:58;;;;;;;4.38;2.78;;;21.20;81.40;;;;;;5074332;28;20024;-56
2021/08/08 10:45:25;;;;;;;5.93;3.30;;;21.40;81.10;;;;;;5055795;28;20445;-52
2021/08/08 10:47:56;;;;;;;6.93;2.95;;;21.50;81.80;;;;;;5074613;28;20056;-53
2021/08/08 10:50:22;;;;;;;5.68;3.10;;;21.50;78.60;;;;;;5074518;28;20564;-56
2021/08/08 10:52:48;;;;;;;3.67;2.58;;;21.40;78.40;;;;;;5073807;28;20036;-54
2021/08/08 10:55:23;;;;;;;4.30;2.83;;;21.30;79.20;;;;;;5056005;28;20387;-53
2021/08/08 10:57:48;;;;;;;3.78;2.50;;;21.70;78.20;;;;;;5091813;28;20069;-51
2021/08/08 11:00:15;;;;;;;3.95;2.65;;;21.80;77.10;;;;;;5075435;28;20039;-53
2021/08/08 11:02:44;;;;;;;3.08;2.78;;;21.90;77.60;;;;;;5093568;28;20042;-49
2021/08/08 11:05:18;;;;;;;4.75;2.75;;;21.90;77.00;;;;;;5093854;28;20032;-53
2021/08/08 11:07:45;;;;;;;4.30;2.30;;;21.90;77.30;;;;;;5093547;28;20142;-54
2021/08/08 11:10:12;;;;;;;4.20;2.50;;;21.90;74.20;;;;;;5094063;28;20047;-52
2021/08/08 11:12:42;;;;;;;3.00;2.55;;;21.80;75.40;;;;;;5093556;28;20051;-56
2021/08/08 11:15:09;;;;;;;3.35;2.53;;;21.90;74.40;;;;;;5093711;28;20552;-58
2021/08/08 11:17:36;;;;;;;3.50;2.55;;;22.00;74.90;;;;;;5093569;28;20124;-54
2021/08/08 11:20:03;;;;;;;3.67;2.22;;;22.20;72.00;;;;;;5081176;28;20373;-50
2021/08/08 11:22:29;;;;;;;3.03;2.72;;;22.20;71.80;;;;;;5073418;28;20037;-52
2021/08/08 11:25:02;;;;;;;4.95;2.47;;;22.30;72.40;;;;;;5072914;28;20063;-55
2021/08/08 11:27:42;;;;;;;2.67;2.47;;;22.50;72.20;;;;;;5072674;28;20059;-54
2021/08/08 11:30:15;;;;;;;3.92;2.80;;;22.50;70.40;;;;;;5072701;28;20648;-54
2021/08/08 11:32:41;;;;;;;3.75;2.80;;;22.50;71.50;;;;;;5073023;28;20033;-56
2021/08/08 11:35:24;;;;;;;3.13;2.63;;;22.60;71.20;;;;;;5054581;28;20047;-53
2021/08/08 11:37:50;;;;;;;4.78;2.80;;;22.50;72.20;;;;;;5057123;28;20043;-54
2021/08/08 11:40:24;;;;;;;4.32;2.70;;;22.50;70.60;;;;;;5072724;28;20036;-52
2021/08/08 11:42:56;;;;;;;;;;;22.60;71.80;;;;;;5073285;28;20094;-57
2021/08/08 11:45:40;;;;;;;5.25;2.70;;;22.80;71.60;;;;;;5073309;28;20016;-51
2021/08/08 11:48:07;;;;;;;4.53;2.42;;;23.00;71.70;;;;;;5065100;28;20025;-54
2021/08/08 11:50:33;;;;;;;4.05;2.55;;;22.90;70.20;;;;;;5072846;28;20028;-56
2021/08/08 11:53:00;;;;;;;3.88;2.65;;;22.60;71.50;;;;;;5072653;28;20059;-52
2021/08/08 11:55:27;;;;;;;4.18;2.70;;;22.30;72.00;;;;;;5054955;28;20470;-54
2021/08/08 11:58:10;;;;;;;3.17;2.53;;;22.20;72.70;;;;;;5066983;28;20033;-56
2021/08/08 12:00:38;;;;;;;4.07;2.80;;;22.20;72.30;;;;;;5064325;28;20077;-52
2021/08/08 12:03:06;;;;;;;4.82;2.47;;;22.30;73.30;;;;;;5082065;28;20035;-52
2021/08/08 12:05:35;;;;;;;4.22;2.72;;;22.30;73.10;;;;;;5080308;28;20032;-54
2021/08/08 12:08:10;;;;;;;5.22;2.70;;;22.20;72.90;;;;;;5084136;28;20123;-56
2021/08/08 12:10:38;;;;;;;3.58;2.92;;;22.40;72.40;;;;;;5082560;28;20055;-54
2021/08/08 12:13:18;;;;;;;4.07;2.30;;;22.50;73.20;;;;;;5066533;28;20063;-52
2021/08/08 12:15:44;;;;;;;3.67;2.30;;;22.60;71.20;;;;;;5057921;28;20032;-55
2021/08/08 12:18:10;;;;;;;2.65;2.40;;;22.60;70.60;;;;;;5074326;28;20106;-61
2021/08/08 12:20:38;;;;;;;4.55;2.58;;;22.70;69.80;;;;;;5081340;28;20119;-56
2021/08/08 12:23:04;;;;;;;5.07;2.78;;;23.10;70.10;;;;;;5092889;28;20048;-51
2021/08/08 12:25:30;;;;;;;4.55;2.80;;;23.20;69.30;;;;;;5088272;28;20047;-50
2021/08/08 12:27:55;;;;;;;4.65;3.13;;;23.20;67.30;;;;;;5079219;28;20033;-51
2021/08/08 12:30:24;;;;;;;3.65;2.47;;;23.00;68.30;;;;;;5086283;28;20064;-54
2021/08/08 12:32:50;;;;;;;5.13;2.90;;;22.90;69.10;;;;;;5092489;28;20053;-52
2021/08/08 12:35:21;;;;;;;4.35;2.60;;;23.10;70.00;;;;;;5091939;28;20032;-53
2021/08/08 12:37:47;;;;;;;4.82;2.38;;;23.20;69.20;;;;;;5074534;28;20048;-52
2021/08/08 12:40:16;;;;;;;3.65;3.05;;;23.30;69.30;;;;;;5092402;28;20051;-53
2021/08/08 12:42:43;;;;;;;5.63;3.13;;;23.50;68.60;;;;;;5074327;28;20046;-50
2021/08/08 12:45:14;;;;;;;6.32;3.00;;;23.70;68.60;;;;;;5092956;28;20384;-53
2021/08/08 12:47:57;;;;;;;3.75;2.70;;;23.50;69.00;;;;;;5089561;28;20036;-55